Marc Fuchs

Recruteur - VfL Wolfsburg
13 Août 2028
Dimanche
Processus

Personnalité

Adaptabilité (15) Ambition (14) Controverse (14) Loyauté (9) Pression (15) Professionnalisme (13) Sportivité (1) Tempérament (20)

Profil

Style d'entraînement Démocratique
Diplôme Continental Pro
Détermination 13
Gestion des joueurs 8
Motivation 7
Discipline 13
Satisfaction professionnelle
100%
Fatigue
0%
Rôle Recruteur
Salaire 98.1K p/s
Contrat 14.03.2029

Performance

Comportement Bon
Efficacité de l'entraînement
58%
Développement des joueurs
70%
Prévention des blessures
30%
Mise en place tactique
70%

Événements récents

A participé à une réunion de recrutement maintenant
A participé à une réunion de recrutement 7j
A recommandé une cible de transfert 7j
A participé à une réunion de recrutement 14j
A recommandé une cible de transfert 14j
A participé à une réunion de recrutement 21j
A recommandé une cible de transfert 21j
A recommandé une cible de transfert 28j

Suivi en cours

80
Joueur Club Statut Capacité Confiance Observé Dernière observation Dernier vote
Trey Nyoni Rotherham United Actif 142 / 151 40% 6 08.08.2028 -
Shea Lacey Crystal Palace Actif 143 / 141 40% 2 08.08.2028 -
Ryan McAidoo Oldham Athletic Actif 133 / 132 40% 2 08.08.2028 -
Arnaud Kalimuendo Nottingham Forest Actif 150 / 153 40% 1 05.07.2028 -
Brandon Thomas-Asante Blackpool Actif 125 / 128 40% 1 05.07.2028 -
Iliman N'Diaye Everton Actif 161 / 162 40% 2 04.07.2028 -
Ez Abde Betis Actif 157 / 156 40% 1 04.07.2028 -
William Osula Wrexham Actif 143 / 136 40% 1 03.07.2028 -
Christopher Nkunku AC Milan Actif 168 / 162 40% 1 03.07.2028 -
Jorge Pascual Granada Perdu 144 / 139 40% 1 26.06.2028 -
Isaac Romero Sevilla Perdu 149 / 142 40% 1 26.06.2028 -
Yousef Salech Cardiff City Perdu 138 / 131 40% 1 26.06.2028 -
Rayan Hamburger SV Actif 140 / 153 40% 1 18.06.2028 -
Saïd El Mala Köln Actif 148 / 153 76% 1 03.06.2028 Approuver
Tyler Fletcher Rotherham United Actif 113 / 116 40% 3 31.05.2028 -
Kerim Alajbegović Modena Actif 138 / 137 40% 1 31.05.2028 -
Ben Broggio Mansfield Town Actif 114 / 120 40% 1 31.05.2028 -
Daniel Banjaqui Benfica Actif 119 / 126 40% 11 29.05.2028 -
Jorge Salinas Racing Santander Actif 136 / 139 40% 8 29.05.2028 -
Christos Mouzakitis Hull City Actif 132 / 141 40% 3 28.05.2028 -
Giovanni Leoni Lincoln City Actif 142 / 141 40% 7 27.05.2028 -
Héctor Fort Real Sociedad Actif 147 / 142 40% 4 25.05.2028 -
Jan Bürger Northampton Town Actif 125 / 128 40% 2 25.05.2028 -
Josh Nichols Oldham Athletic Actif 123 / 122 40% 7 23.05.2028 -
Givairo Read Feyenoord Actif 152 / 156 40% 6 22.05.2028 -
Martim Cunha Porto Actif 109 / 110 40% 6 22.05.2028 -
Olivier Mambwa Young Boys Actif 109 / 125 40% 5 21.05.2028 -
Marc Bernal Sevilla Actif 151 / 156 40% 6 20.05.2028 -
Riquelme Thompson-Jones Accrington Stanley Actif 107 / 115 40% 5 20.05.2028 -
Andrija Bulatović Chamois Niortais Actif 129 / 132 40% 4 19.05.2028 -
Pau Cubarsí Real Sociedad Actif 161 / 167 40% 11 18.05.2028 -
Bernardo Lima Porto Actif 109 / 115 40% 4 18.05.2028 -
Ayden Heaven Portsmouth Actif 147 / 150 40% 7 18.05.2028 -
Honest Ahanor Atalanta Actif 137 / 145 40% 12 17.05.2028 -
Jorthy Mokio ADO Den Haag Actif 130 / 137 40% 6 06.05.2028 -
Josh Acheampong Everton Actif 137 / 145 40% 3 06.04.2028 -
Izan Merino Málaga Actif 125 / 131 40% 2 05.04.2028 -
Matias Siltanen Malmo FF Actif 125 / 132 40% 2 31.03.2028 -
Prosper Peter Olympique Lyonnais Actif 111 / 123 40% 1 29.06.2027 -
Finn Azaz Southampton Actif 130 / 132 40% 1 18.05.2027 -
Georges Mikautadze Villarreal Actif 152 / 151 40% 1 18.05.2027 -
Joe Gelhardt Hull City Actif 138 / 137 40% 1 18.05.2027 -
Manu Koné AS Roma Actif 167 / 164 40% 2 15.05.2027 -
Chemsdine Talbi Sunderland Actif 147 / 141 40% 2 13.05.2027 -
Roberto Fernández Braga Actif 150 / 142 40% 6 11.05.2027 -
Kevin Fulham Actif 146 / 150 40% 2 09.05.2027 -
Aimar Osasuna Actif 148 / 148 40% 1 09.05.2027 -
Pablo Torre Mallorca Actif 140 / 146 40% 1 08.05.2027 -
Jonathan Dubasin Osasuna Actif 138 / 141 40% 1 08.05.2027 -
David Larrubia Málaga Actif 139 / 133 40% 1 02.05.2027 -
Savinho Tottenham Actif 153 / 152 40% 1 01.05.2027 -
Omar El Hilali Espanyol Actif 145 / 154 40% 1 01.05.2027 -
Andrés Martín Racing Santander Perdu 144 / 132 40% 4 27.04.2027 -
Francisco Conceição Köln Actif 151 / 156 40% 3 12.04.2027 -
Yeremy Pino Crystal Palace Actif 156 / 151 40% 3 11.04.2027 -
Osame Sahraoui LOSC Lille Actif 141 / 142 40% 1 06.04.2027 -
Pau Víctor Braga Actif 135 / 140 40% 1 04.04.2027 -
Takefusa Kubo VfB Stuttgart Actif 158 / 160 40% 2 31.03.2027 -
Geny Sporting CP Actif 148 / 148 40% 2 31.03.2027 -
Mikel Jauregizar Athletic Bilbao Actif 159 / 159 40% 3 21.03.2027 -
Alfon Sevilla Actif 145 / 136 40% 1 10.03.2027 -
Petter Nosa Dahl Rapid Wien Actif 124 / 120 40% 2 25.12.2026 -
Carlos Álvarez Club America Actif 146 / 146 40% 1 25.12.2026 -
Oihan Sancet Athletic Bilbao Actif 153 / 157 40% 3 20.12.2026 -
Christantus Uche Getafe Actif 132 / 138 40% 1 20.12.2026 -
Sota Kitano Red Bull Salzburg Actif 130 / 118 40% 2 16.12.2026 -
Yorbe Vertessen Red Bull Salzburg Actif 127 / 127 40% 2 15.12.2026 -
Metinho Basel Actif 126 / 127 40% 2 10.12.2026 -
João Pedro Chelsea Actif 146 / 154 40% 1 10.12.2026 -
Moisés Caicedo Chelsea Actif 161 / 165 40% 2 07.12.2026 -
Carlos Forbs Club Brugge Actif 142 / 137 40% 1 27.11.2026 -
Oswin Appollis Orlando Pirates Actif 125 / 120 40% 1 20.11.2026 -
Mattia Zanotti Young Boys Actif 121 / 128 40% 1 09.11.2026 -
Matthias Seidl Rapid Wien Actif 122 / 123 40% 1 31.10.2026 -
Amadou Onana Aston Villa Actif 148 / 149 40% 1 26.10.2026 -
Michael Olise Bayern Munich Actif 181 / 180 40% 1 23.10.2026 -
Maurits Kjærgaard Red Bull Salzburg Actif 121 / 131 40% 1 20.10.2026 -
Felix Nmecha Borussia Dortmund Actif 152 / 166 40% 1 04.08.2026 -
Frenkie de Jong Barcelona Actif 156 / 167 40% 1 01.08.2026 -
Cody Gakpo Liverpool Actif 153 / 161 40% 1 01.08.2026 -